sensor_id;sensor_type;location;lat;lon;timestamp;pressure;altitude;pressure_sealevel;temperature;humidity
75298;BME280;63896;45.990;18.688;2023-06-24T00:01:10;100874.34;;;19.31;86.89
75298;BME280;63896;45.990;18.688;2023-06-24T00:04:16;100884.00;;;19.27;85.97
75298;BME280;63896;45.990;18.688;2023-06-24T00:07:21;100891.53;;;19.25;86.35
75298;BME280;63896;45.990;18.688;2023-06-24T00:10:25;100890.16;;;19.23;86.87
75298;BME280;63896;45.990;18.688;2023-06-24T00:13:28;100882.09;;;19.23;86.73
75298;BME280;63896;45.990;18.688;2023-06-24T00:16:31;100883.41;;;19.20;87.71
75298;BME280;63896;45.990;18.688;2023-06-24T00:19:34;100900.63;;;19.19;87.76
75298;BME280;63896;45.990;18.688;2023-06-24T00:22:38;100906.03;;;19.24;87.47
75298;BME280;63896;45.990;18.688;2023-06-24T00:25:46;100899.34;;;19.27;87.05
75298;BME280;63896;45.990;18.688;2023-06-24T00:28:49;100902.28;;;19.25;88.08
75298;BME280;63896;45.990;18.688;2023-06-24T00:31:52;100907.59;;;19.15;88.79
75298;BME280;63896;45.990;18.688;2023-06-24T00:34:55;100923.69;;;19.10;88.46
75298;BME280;63896;45.990;18.688;2023-06-24T00:38:03;100926.69;;;19.14;88.34
75298;BME280;63896;45.990;18.688;2023-06-24T00:41:07;100919.59;;;19.02;90.15
75298;BME280;63896;45.990;18.688;2023-06-24T00:44:10;100898.84;;;18.98;90.70
75298;BME280;63896;45.990;18.688;2023-06-24T00:47:13;100887.75;;;18.89;90.76
75298;BME280;63896;45.990;18.688;2023-06-24T00:50:16;100894.47;;;18.87;91.65
75298;BME280;63896;45.990;18.688;2023-06-24T00:53:18;100918.91;;;18.85;91.93
75298;BME280;63896;45.990;18.688;2023-06-24T00:56:22;100916.44;;;18.79;92.45
75298;BME280;63896;45.990;18.688;2023-06-24T00:59:27;100894.94;;;18.79;93.00
75298;BME280;63896;45.990;18.688;2023-06-24T01:02:35;100861.09;;;18.83;92.07
75298;BME280;63896;45.990;18.688;2023-06-24T01:05:48;100836.53;;;18.74;92.89
75298;BME280;63896;45.990;18.688;2023-06-24T01:08:52;100852.09;;;18.67;93.65
75298;BME280;63896;45.990;18.688;2023-06-24T01:11:58;100852.84;;;18.63;93.77
75298;BME280;63896;45.990;18.688;2023-06-24T01:15:02;100868.91;;;18.58;94.48
75298;BME280;63896;45.990;18.688;2023-06-24T01:35:20;100907.47;;;18.46;96.18
75298;BME280;63896;45.990;18.688;2023-06-24T01:38:34;100937.34;;;18.50;95.33
75298;BME280;63896;45.990;18.688;2023-06-24T01:41:46;100981.50;;;18.54;95.86
75298;BME280;63896;45.990;18.688;2023-06-24T01:44:50;100965.13;;;18.55;94.80
75298;BME280;63896;45.990;18.688;2023-06-24T01:48:02;100918.69;;;18.60;95.48
75298;BME280;63896;45.990;18.688;2023-06-24T01:51:13;100925.63;;;18.56;95.65
75298;BME280;63896;45.990;18.688;2023-06-24T01:54:18;100946.00;;;18.52;95.35
75298;BME280;63896;45.990;18.688;2023-06-24T01:57:23;100923.88;;;18.45;95.77
75298;BME280;63896;45.990;18.688;2023-06-24T02:00:28;100916.81;;;18.39;95.70
75298;BME280;63896;45.990;18.688;2023-06-24T02:03:32;100912.97;;;18.30;96.56
75298;BME280;63896;45.990;18.688;2023-06-24T02:06:39;100894.19;;;18.35;95.99
75298;BME280;63896;45.990;18.688;2023-06-24T02:09:44;100883.66;;;18.28;96.99
75298;BME280;63896;45.990;18.688;2023-06-24T02:12:51;100887.06;;;18.19;97.18
75298;BME280;63896;45.990;18.688;2023-06-24T02:15:55;100906.84;;;18.13;98.58
75298;BME280;63896;45.990;18.688;2023-06-24T02:18:59;100917.03;;;18.11;98.55
75298;BME280;63896;45.990;18.688;2023-06-24T02:22:05;100944.06;;;18.04;99.64
75298;BME280;63896;45.990;18.688;2023-06-24T02:25:12;100952.63;;;18.01;98.80
75298;BME280;63896;45.990;18.688;2023-06-24T02:28:16;100960.28;;;17.92;100.00
75298;BME280;63896;45.990;18.688;2023-06-24T02:31:20;100964.84;;;17.92;100.00
75298;BME280;63896;45.990;18.688;2023-06-24T02:34:23;100956.16;;;17.85;100.00
75298;BME280;63896;45.990;18.688;2023-06-24T02:37:26;100974.41;;;17.83;100.00
75298;BME280;63896;45.990;18.688;2023-06-24T02:40:29;100980.09;;;17.86;100.00
75298;BME280;63896;45.990;18.688;2023-06-24T02:43:32;100973.47;;;17.72;100.00
75298;BME280;63896;45.990;18.688;2023-06-24T02:46:36;100957.19;;;17.62;100.00
75298;BME280;63896;45.990;18.688;2023-06-24T02:49:39;100950.84;;;17.51;100.00
75298;BME280;63896;45.990;18.688;2023-06-24T02:52:42;100935.72;;;17.45;100.00
75298;BME280;63896;45.990;18.688;2023-06-24T02:55:47;100941.00;;;17.40;100.00
75298;BME280;63896;45.990;18.688;2023-06-24T02:58:52;100965.66;;;17.37;100.00
75298;BME280;63896;45.990;18.688;2023-06-24T03:01:59;100975.63;;;17.42;100.00
75298;BME280;63896;45.990;18.688;2023-06-24T03:05:03;100973.44;;;17.39;100.00
75298;BME280;63896;45.990;18.688;2023-06-24T03:08:07;100981.50;;;17.39;100.00
75298;BME280;63896;45.990;18.688;2023-06-24T03:11:15;100998.06;;;17.36;100.00
75298;BME280;63896;45.990;18.688;2023-06-24T03:14:18;101002.31;;;17.32;100.00
75298;BME280;63896;45.990;18.688;2023-06-24T03:17:22;101006.94;;;17.36;100.00
75298;BME280;63896;45.990;18.688;2023-06-24T03:20:25;101012.41;;;17.41;100.00
75298;BME280;63896;45.990;18.688;2023-06-24T03:23:30;101009.13;;;17.39;100.00
75298;BME280;63896;45.990;18.688;2023-06-24T03:26:40;101012.03;;;17.38;100.00
75298;BME280;63896;45.990;18.688;2023-06-24T03:29:45;101017.34;;;17.33;100.00
75298;BME280;63896;45.990;18.688;2023-06-24T03:32:48;101027.97;;;17.28;100.00
75298;BME280;63896;45.990;18.688;2023-06-24T03:35:52;101048.13;;;17.30;100.00
75298;BME280;63896;45.990;18.688;2023-06-24T03:39:00;101060.75;;;17.30;100.00
75298;BME280;63896;45.990;18.688;2023-06-24T03:42:03;101068.63;;;17.36;100.00
75298;BME280;63896;45.990;18.688;2023-06-24T03:45:07;101077.72;;;17.35;100.00
75298;BME280;63896;45.990;18.688;2023-06-24T03:48:10;101081.00;;;17.37;100.00
75298;BME280;63896;45.990;18.688;2023-06-24T03:51:14;101078.47;;;17.31;100.00
75298;BME280;63896;45.990;18.688;2023-06-24T03:54:17;101078.84;;;17.23;100.00
75298;BME280;63896;45.990;18.688;2023-06-24T03:57:19;101086.88;;;17.23;100.00
75298;BME280;63896;45.990;18.688;2023-06-24T04:00:23;101091.06;;;17.30;100.00
75298;BME280;63896;45.990;18.688;2023-06-24T04:03:26;101086.59;;;17.36;100.00
75298;BME280;63896;45.990;18.688;2023-06-24T04:06:29;101090.53;;;17.45;100.00
75298;BME280;63896;45.990;18.688;2023-06-24T04:09:33;101104.34;;;17.53;100.00
75298;BME280;63896;45.990;18.688;2023-06-24T04:12:36;101113.25;;;17.71;100.00
75298;BME280;63896;45.990;18.688;2023-06-24T04:15:39;101121.38;;;17.92;100.00
75298;BME280;63896;45.990;18.688;2023-06-24T04:18:42;101107.72;;;18.11;100.00
75298;BME280;63896;45.990;18.688;2023-06-24T04:21:44;101112.50;;;18.25;100.00
75298;BME280;63896;45.990;18.688;2023-06-24T04:24:47;101126.69;;;18.42;99.79
75298;BME280;63896;45.990;18.688;2023-06-24T04:27:50;101135.91;;;18.63;98.16
75298;BME280;63896;45.990;18.688;2023-06-24T04:30:54;101121.59;;;18.79;98.10
75298;BME280;63896;45.990;18.688;2023-06-24T04:33:56;101112.47;;;18.80;97.10
75298;BME280;63896;45.990;18.688;2023-06-24T04:36:59;101123.13;;;18.97;96.67
75298;BME280;63896;45.990;18.688;2023-06-24T04:40:02;101111.56;;;19.18;94.34
75298;BME280;63896;45.990;18.688;2023-06-24T04:43:06;101104.22;;;19.40;93.01
75298;BME280;63896;45.990;18.688;2023-06-24T04:46:08;101108.25;;;19.65;90.56
75298;BME280;63896;45.990;18.688;2023-06-24T04:49:12;101094.03;;;19.69;89.69
75298;BME280;63896;45.990;18.688;2023-06-24T04:52:14;101063.06;;;20.09;88.55
75298;BME280;63896;45.990;18.688;2023-06-24T04:55:17;101037.81;;;20.25;88.19
75298;BME280;63896;45.990;18.688;2023-06-24T04:58:20;101030.09;;;20.43;87.48
75298;BME280;63896;45.990;18.688;2023-06-24T05:01:23;101032.06;;;20.58;85.44
75298;BME280;63896;45.990;18.688;2023-06-24T05:04:26;101027.63;;;20.32;87.22
75298;BME280;63896;45.990;18.688;2023-06-24T05:07:29;101026.13;;;20.56;85.19
75298;BME280;63896;45.990;18.688;2023-06-24T05:10:32;101037.78;;;20.82;83.54
75298;BME280;63896;45.990;18.688;2023-06-24T05:13:35;101043.84;;;21.14;81.90
75298;BME280;63896;45.990;18.688;2023-06-24T05:16:38;101033.59;;;21.31;79.65
75298;BME280;63896;45.990;18.688;2023-06-24T05:19:41;101011.19;;;21.41;79.38
75298;BME280;63896;45.990;18.688;2023-06-24T05:22:43;101019.56;;;21.55;76.88
75298;BME280;63896;45.990;18.688;2023-06-24T05:25:46;101013.84;;;21.76;77.05
75298;BME280;63896;45.990;18.688;2023-06-24T05:28:49;101004.41;;;21.74;75.75
75298;BME280;63896;45.990;18.688;2023-06-24T05:31:52;101014.88;;;22.06;73.41
75298;BME280;63896;45.990;18.688;2023-06-24T05:34:55;101014.38;;;21.78;71.52
75298;BME280;63896;45.990;18.688;2023-06-24T05:37:57;101007.59;;;22.11;73.46
75298;BME280;63896;45.990;18.688;2023-06-24T05:41:00;101004.06;;;22.16;71.84
75298;BME280;63896;45.990;18.688;2023-06-24T05:44:07;101005.00;;;22.45;71.49
75298;BME280;63896;45.990;18.688;2023-06-24T05:47:10;101015.53;;;22.52;68.71
75298;BME280;63896;45.990;18.688;2023-06-24T05:50:13;101025.75;;;22.60;66.67
75298;BME280;63896;45.990;18.688;2023-06-24T05:53:15;101030.59;;;22.78;66.48
75298;BME280;63896;45.990;18.688;2023-06-24T05:56:20;101022.50;;;22.73;65.75
75298;BME280;63896;45.990;18.688;2023-06-24T05:59:23;101021.34;;;22.79;66.60
75298;BME280;63896;45.990;18.688;2023-06-24T06:02:25;101014.44;;;23.02;65.73
75298;BME280;63896;45.990;18.688;2023-06-24T06:05:29;101018.72;;;23.13;63.89
75298;BME280;63896;45.990;18.688;2023-06-24T06:08:32;101019.63;;;22.98;65.53
75298;BME280;63896;45.990;18.688;2023-06-24T06:11:35;101018.44;;;22.70;65.11
75298;BME280;63896;45.990;18.688;2023-06-24T06:14:38;101015.00;;;22.99;65.50
75298;BME280;63896;45.990;18.688;2023-06-24T06:17:40;101005.56;;;23.30;64.04
75298;BME280;63896;45.990;18.688;2023-06-24T06:20:43;101006.00;;;23.47;63.13
75298;BME280;63896;45.990;18.688;2023-06-24T06:23:46;101015.22;;;23.41;62.48
75298;BME280;63896;45.990;18.688;2023-06-24T06:26:49;101008.38;;;24.06;61.02
75298;BME280;63896;45.990;18.688;2023-06-24T06:29:51;101008.88;;;24.13;59.53
75298;BME280;63896;45.990;18.688;2023-06-24T06:32:54;101013.50;;;24.55;58.17
75298;BME280;63896;45.990;18.688;2023-06-24T06:35:57;101020.19;;;24.44;57.51
75298;BME280;63896;45.990;18.688;2023-06-24T06:39:00;101022.41;;;24.37;57.95
75298;BME280;63896;45.990;18.688;2023-06-24T06:42:02;101022.69;;;24.59;56.73
75298;BME280;63896;45.990;18.688;2023-06-24T06:45:06;101040.22;;;24.25;57.03
75298;BME280;63896;45.990;18.688;2023-06-24T06:48:09;101034.25;;;24.23;56.86
75298;BME280;63896;45.990;18.688;2023-06-24T06:51:12;101023.09;;;24.00;58.48
75298;BME280;63896;45.990;18.688;2023-06-24T06:54:15;101014.03;;;24.76;57.49
75298;BME280;63896;45.990;18.688;2023-06-24T06:57:20;101011.75;;;24.83;55.02
75298;BME280;63896;45.990;18.688;2023-06-24T07:00:23;101018.53;;;25.04;55.37
75298;BME280;63896;45.990;18.688;2023-06-24T07:03:26;101030.69;;;25.26;54.90
75298;BME280;63896;45.990;18.688;2023-06-24T07:06:30;101027.59;;;24.76;55.26
75298;BME280;63896;45.990;18.688;2023-06-24T07:09:35;101041.50;;;25.12;55.13
75298;BME280;63896;45.990;18.688;2023-06-24T07:12:38;101040.19;;;26.06;53.14
75298;BME280;63896;45.990;18.688;2023-06-24T07:15:41;101042.34;;;26.73;50.42
75298;BME280;63896;45.990;18.688;2023-06-24T07:18:44;101027.41;;;27.20;48.57
75298;BME280;63896;45.990;18.688;2023-06-24T07:21:47;101028.19;;;27.87;47.21
75298;BME280;63896;45.990;18.688;2023-06-24T07:24:49;101027.47;;;28.52;45.78
75298;BME280;63896;45.990;18.688;2023-06-24T07:27:52;101032.84;;;29.43;43.62
75298;BME280;63896;45.990;18.688;2023-06-24T07:30:55;101025.31;;;29.95;42.24
75298;BME280;63896;45.990;18.688;2023-06-24T07:33:58;101040.75;;;29.99;41.34
75298;BME280;63896;45.990;18.688;2023-06-24T07:37:01;101019.81;;;29.22;43.21
75298;BME280;63896;45.990;18.688;2023-06-24T07:40:23;101020.88;;;28.53;44.62
75298;BME280;63896;45.990;18.688;2023-06-24T07:43:26;101023.88;;;27.94;46.71
75298;BME280;63896;45.990;18.688;2023-06-24T07:46:29;101026.25;;;27.87;46.55
75298;BME280;63896;45.990;18.688;2023-06-24T07:49:32;101014.03;;;27.85;46.27
75298;BME280;63896;45.990;18.688;2023-06-24T07:52:35;101015.91;;;27.45;48.52
75298;BME280;63896;45.990;18.688;2023-06-24T07:55:38;101026.09;;;27.53;48.03
75298;BME280;63896;45.990;18.688;2023-06-24T07:58:41;101021.88;;;27.78;46.51
75298;BME280;63896;45.990;18.688;2023-06-24T08:01:43;101020.88;;;27.74;47.68
75298;BME280;63896;45.990;18.688;2023-06-24T08:04:46;101020.34;;;26.96;50.04
75298;BME280;63896;45.990;18.688;2023-06-24T08:07:51;101016.25;;;27.08;49.68
75298;BME280;63896;45.990;18.688;2023-06-24T08:10:54;101028.59;;;26.42;51.25
75298;BME280;63896;45.990;18.688;2023-06-24T08:13:57;101031.63;;;26.27;51.26
75298;BME280;63896;45.990;18.688;2023-06-24T08:17:00;101024.25;;;26.00;52.44
75298;BME280;63896;45.990;18.688;2023-06-24T08:20:03;101027.25;;;25.71;53.81
75298;BME280;63896;45.990;18.688;2023-06-24T08:23:06;101020.22;;;25.51;54.71
75298;BME280;63896;45.990;18.688;2023-06-24T08:26:09;101028.16;;;25.48;54.50
75298;BME280;63896;45.990;18.688;2023-06-24T08:29:19;101029.00;;;25.30;60.28
75298;BME280;63896;45.990;18.688;2023-06-24T08:32:21;101027.16;;;25.90;56.58
75298;BME280;63896;45.990;18.688;2023-06-24T08:35:24;101028.34;;;25.70;56.03
75298;BME280;63896;45.990;18.688;2023-06-24T08:38:27;101032.50;;;25.81;55.75
75298;BME280;63896;45.990;18.688;2023-06-24T08:41:30;101028.56;;;26.15;53.63
75298;BME280;63896;45.990;18.688;2023-06-24T08:44:33;101028.06;;;26.67;51.91
75298;BME280;63896;45.990;18.688;2023-06-24T08:47:35;101022.72;;;27.34;49.99
75298;BME280;63896;45.990;18.688;2023-06-24T08:50:44;101009.47;;;28.03;48.84
75298;BME280;63896;45.990;18.688;2023-06-24T08:53:49;101008.72;;;28.11;48.92
75298;BME280;63896;45.990;18.688;2023-06-24T08:56:52;100997.06;;;27.97;49.03
75298;BME280;63896;45.990;18.688;2023-06-24T08:59:55;100992.88;;;27.51;48.69
75298;BME280;63896;45.990;18.688;2023-06-24T09:02:59;101011.47;;;28.11;47.32
75298;BME280;63896;45.990;18.688;2023-06-24T09:06:02;101023.75;;;28.00;48.73
75298;BME280;63896;45.990;18.688;2023-06-24T09:09:05;101007.56;;;29.20;44.33
75298;BME280;63896;45.990;18.688;2023-06-24T09:12:19;101009.41;;;29.71;43.80
75298;BME280;63896;45.990;18.688;2023-06-24T09:15:22;100997.44;;;29.12;44.73
75298;BME280;63896;45.990;18.688;2023-06-24T09:18:31;101000.63;;;28.45;46.69
75298;BME280;63896;45.990;18.688;2023-06-24T09:21:34;101022.38;;;28.19;48.94
75298;BME280;63896;45.990;18.688;2023-06-24T09:24:38;101023.94;;;27.06;50.08
75298;BME280;63896;45.990;18.688;2023-06-24T09:27:47;101026.34;;;26.85;51.36
75298;BME280;63896;45.990;18.688;2023-06-24T09:31:04;101035.13;;;26.54;52.71
75298;BME280;63896;45.990;18.688;2023-06-24T09:34:20;101033.72;;;25.89;53.22
75298;BME280;63896;45.990;18.688;2023-06-24T09:37:24;101023.66;;;25.25;54.38
75298;BME280;63896;45.990;18.688;2023-06-24T09:40:34;100991.97;;;24.83;56.18
75298;BME280;63896;45.990;18.688;2023-06-24T09:43:38;100963.38;;;24.29;57.68
75298;BME280;63896;45.990;18.688;2023-06-24T09:46:45;100946.22;;;24.34;58.92
75298;BME280;63896;45.990;18.688;2023-06-24T09:49:48;100950.41;;;24.26;65.58
75298;BME280;63896;45.990;18.688;2023-06-24T09:52:52;100947.47;;;24.23;66.57
75298;BME280;63896;45.990;18.688;2023-06-24T09:55:55;100949.91;;;24.24;69.09
75298;BME280;63896;45.990;18.688;2023-06-24T09:58:58;100940.91;;;24.47;65.56
75298;BME280;63896;45.990;18.688;2023-06-24T10:02:02;100935.72;;;24.83;65.47
75298;BME280;63896;45.990;18.688;2023-06-24T10:05:06;100942.66;;;25.59;64.14
75298;BME280;63896;45.990;18.688;2023-06-24T10:08:10;100951.66;;;26.50;61.09
75298;BME280;63896;45.990;18.688;2023-06-24T10:11:13;100963.38;;;27.31;57.78
75298;BME280;63896;45.990;18.688;2023-06-24T10:14:16;100964.66;;;27.56;59.98
75298;BME280;63896;45.990;18.688;2023-06-24T10:17:19;100951.72;;;27.39;57.38
75298;BME280;63896;45.990;18.688;2023-06-24T10:20:25;100964.94;;;27.76;56.04
75298;BME280;63896;45.990;18.688;2023-06-24T10:23:35;100977.91;;;26.82;56.33
75298;BME280;63896;45.990;18.688;2023-06-24T10:26:41;100986.03;;;29.27;53.11
75298;BME280;63896;45.990;18.688;2023-06-24T10:29:45;100997.78;;;29.27;53.89
75298;BME280;63896;45.990;18.688;2023-06-24T10:32:52;101003.50;;;29.60;47.40
75298;BME280;63896;45.990;18.688;2023-06-24T10:36:00;101012.91;;;30.56;46.78
75298;BME280;63896;45.990;18.688;2023-06-24T10:39:03;101015.03;;;30.21;46.47
75298;BME280;63896;45.990;18.688;2023-06-24T10:45:36;101020.56;;;32.51;42.17
75298;BME280;63896;45.990;18.688;2023-06-24T10:48:39;101015.22;;;33.10;38.40
75298;BME280;63896;45.990;18.688;2023-06-24T10:51:42;101013.34;;;32.46;41.39
75298;BME280;63896;45.990;18.688;2023-06-24T10:54:45;101006.75;;;30.59;41.96
75298;BME280;63896;45.990;18.688;2023-06-24T10:57:48;101006.66;;;31.75;41.20
75298;BME280;63896;45.990;18.688;2023-06-24T11:00:51;101012.28;;;32.02;39.83
75298;BME280;63896;45.990;18.688;2023-06-24T11:03:54;101001.91;;;31.39;41.28
75298;BME280;63896;45.990;18.688;2023-06-24T11:06:58;101023.66;;;30.32;43.17
75298;BME280;63896;45.990;18.688;2023-06-24T11:10:04;101010.34;;;29.92;43.46
75298;BME280;63896;45.990;18.688;2023-06-24T11:13:08;101011.06;;;30.68;42.82
75298;BME280;63896;45.990;18.688;2023-06-24T11:16:11;100990.34;;;30.00;45.93
75298;BME280;63896;45.990;18.688;2023-06-24T11:19:14;100982.81;;;29.16;45.89
75298;BME280;63896;45.990;18.688;2023-06-24T11:22:17;100968.47;;;28.25;47.70
75298;BME280;63896;45.990;18.688;2023-06-24T11:25:23;100963.69;;;28.48;48.40
75298;BME280;63896;45.990;18.688;2023-06-24T11:28:26;100961.72;;;28.31;48.54
75298;BME280;63896;45.990;18.688;2023-06-24T11:31:30;100970.53;;;30.74;42.51
75298;BME280;63896;45.990;18.688;2023-06-24T11:34:36;100967.53;;;32.90;38.75
75298;BME280;63896;45.990;18.688;2023-06-24T11:37:45;100975.34;;;32.00;41.12
75298;BME280;63896;45.990;18.688;2023-06-24T11:40:48;100978.13;;;32.12;39.04
75298;BME280;63896;45.990;18.688;2023-06-24T11:43:51;100982.69;;;32.20;39.30
75298;BME280;63896;45.990;18.688;2023-06-24T11:47:03;100972.13;;;31.98;39.86
75298;BME280;63896;45.990;18.688;2023-06-24T11:50:08;100972.41;;;31.48;40.50
75298;BME280;63896;45.990;18.688;2023-06-24T11:53:11;100951.78;;;31.75;40.11
75298;BME280;63896;45.990;18.688;2023-06-24T11:56:13;100958.09;;;32.11;38.92
75298;BME280;63896;45.990;18.688;2023-06-24T11:59:21;100960.16;;;31.33;40.61
75298;BME280;63896;45.990;18.688;2023-06-24T12:02:24;100962.16;;;30.91;40.99
75298;BME280;63896;45.990;18.688;2023-06-24T12:05:29;100953.50;;;31.91;38.89
75298;BME280;63896;45.990;18.688;2023-06-24T12:08:32;100953.50;;;30.89;42.08
75298;BME280;63896;45.990;18.688;2023-06-24T12:11:53;100963.44;;;30.02;43.89
75298;BME280;63896;45.990;18.688;2023-06-24T12:14:56;100964.47;;;30.48;43.13
75298;BME280;63896;45.990;18.688;2023-06-24T12:17:59;100972.78;;;30.01;43.55
75298;BME280;63896;45.990;18.688;2023-06-24T12:21:02;100968.50;;;31.82;40.46
75298;BME280;63896;45.990;18.688;2023-06-24T12:24:05;100957.44;;;30.59;43.38
75298;BME280;63896;45.990;18.688;2023-06-24T12:27:08;100955.09;;;29.52;43.62
75298;BME280;63896;45.990;18.688;2023-06-24T12:30:11;100953.44;;;28.88;45.54
75298;BME280;63896;45.990;18.688;2023-06-24T12:33:14;100954.22;;;28.97;45.60
75298;BME280;63896;45.990;18.688;2023-06-24T12:36:21;100948.09;;;29.34;45.07
75298;BME280;63896;45.990;18.688;2023-06-24T12:39:24;100955.44;;;30.68;42.91
75298;BME280;63896;45.990;18.688;2023-06-24T12:42:27;100955.28;;;29.47;43.76
75298;BME280;63896;45.990;18.688;2023-06-24T12:45:30;100956.28;;;29.08;45.45
75298;BME280;63896;45.990;18.688;2023-06-24T12:48:33;100960.31;;;29.74;44.34
75298;BME280;63896;45.990;18.688;2023-06-24T12:51:35;100973.66;;;29.21;44.41
75298;BME280;63896;45.990;18.688;2023-06-24T12:54:38;100970.53;;;29.57;44.81
75298;BME280;63896;45.990;18.688;2023-06-24T12:57:41;100960.00;;;30.14;43.97
75298;BME280;63896;45.990;18.688;2023-06-24T13:00:44;100962.13;;;28.72;46.22
75298;BME280;63896;45.990;18.688;2023-06-24T13:03:47;100968.63;;;28.11;48.41
75298;BME280;63896;45.990;18.688;2023-06-24T13:06:53;100963.06;;;28.85;46.43
75298;BME280;63896;45.990;18.688;2023-06-24T13:09:56;100960.03;;;28.86;46.23
75298;BME280;63896;45.990;18.688;2023-06-24T13:13:02;100952.59;;;29.39;44.89
75298;BME280;63896;45.990;18.688;2023-06-24T13:16:05;100942.59;;;29.80;43.25
75298;BME280;63896;45.990;18.688;2023-06-24T13:19:07;100927.53;;;30.54;42.38
75298;BME280;63896;45.990;18.688;2023-06-24T13:22:11;100929.16;;;30.25;43.65
75298;BME280;63896;45.990;18.688;2023-06-24T13:25:14;100931.78;;;29.93;43.74
75298;BME280;63896;45.990;18.688;2023-06-24T13:28:18;100927.66;;;30.07;43.27
75298;BME280;63896;45.990;18.688;2023-06-24T13:31:21;100931.72;;;30.01;43.44
75298;BME280;63896;45.990;18.688;2023-06-24T13:34:23;100917.63;;;29.82;44.40
75298;BME280;63896;45.990;18.688;2023-06-24T13:37:26;100913.28;;;29.90;44.11
75298;BME280;63896;45.990;18.688;2023-06-24T13:40:29;100917.16;;;29.89;44.72
75298;BME280;63896;45.990;18.688;2023-06-24T13:43:31;100907.34;;;29.50;44.92
75298;BME280;63896;45.990;18.688;2023-06-24T13:46:34;100907.91;;;29.64;44.60
75298;BME280;63896;45.990;18.688;2023-06-24T13:49:37;100913.78;;;29.45;45.79
75298;BME280;63896;45.990;18.688;2023-06-24T13:52:40;100918.38;;;29.15;45.87
75298;BME280;63896;45.990;18.688;2023-06-24T13:55:43;100905.53;;;28.64;46.63
75298;BME280;63896;45.990;18.688;2023-06-24T13:58:46;100912.63;;;28.91;46.65
75298;BME280;63896;45.990;18.688;2023-06-24T14:01:50;100912.47;;;28.70;47.40
75298;BME280;63896;45.990;18.688;2023-06-24T14:04:52;100908.91;;;28.53;47.79
75298;BME280;63896;45.990;18.688;2023-06-24T14:07:55;100909.69;;;28.10;47.91
75298;BME280;63896;45.990;18.688;2023-06-24T14:10:59;100916.78;;;27.72;48.51
75298;BME280;63896;45.990;18.688;2023-06-24T14:14:02;100917.63;;;27.89;47.74
75298;BME280;63896;45.990;18.688;2023-06-24T14:17:06;100910.88;;;27.87;49.09
75298;BME280;63896;45.990;18.688;2023-06-24T14:20:12;100902.50;;;28.23;47.57
75298;BME280;63896;45.990;18.688;2023-06-24T14:23:15;100902.00;;;28.29;47.22
75298;BME280;63896;45.990;18.688;2023-06-24T14:26:18;100892.22;;;28.37;47.55
75298;BME280;63896;45.990;18.688;2023-06-24T14:29:20;100891.06;;;28.81;46.93
75298;BME280;63896;45.990;18.688;2023-06-24T14:32:23;100886.75;;;28.63;47.27
75298;BME280;63896;45.990;18.688;2023-06-24T14:35:29;100883.53;;;28.52;46.38
75298;BME280;63896;45.990;18.688;2023-06-24T14:38:31;100882.56;;;28.22;47.25
75298;BME280;63896;45.990;18.688;2023-06-24T14:41:34;100881.75;;;28.82;45.96
75298;BME280;63896;45.990;18.688;2023-06-24T14:44:37;100887.22;;;28.73;46.35
75298;BME280;63896;45.990;18.688;2023-06-24T14:47:40;100874.78;;;29.19;45.62
75298;BME280;63896;45.990;18.688;2023-06-24T14:50:43;100875.53;;;29.37;45.40
75298;BME280;63896;45.990;18.688;2023-06-24T14:53:45;100878.59;;;29.35;46.10
75298;BME280;63896;45.990;18.688;2023-06-24T14:56:48;100872.81;;;28.73;46.30
75298;BME280;63896;45.990;18.688;2023-06-24T14:59:51;100872.97;;;29.31;44.82
75298;BME280;63896;45.990;18.688;2023-06-24T15:02:54;100868.25;;;28.94;45.08
75298;BME280;63896;45.990;18.688;2023-06-24T15:05:57;100869.56;;;28.88;45.81
75298;BME280;63896;45.990;18.688;2023-06-24T15:08:59;100870.03;;;28.56;46.88
75298;BME280;63896;45.990;18.688;2023-06-24T15:12:02;100876.66;;;28.46;45.91
75298;BME280;63896;45.990;18.688;2023-06-24T15:15:05;100875.44;;;27.87;47.81
75298;BME280;63896;45.990;18.688;2023-06-24T15:18:08;100876.03;;;27.75;49.01
75298;BME280;63896;45.990;18.688;2023-06-24T15:21:11;100871.94;;;27.47;49.28
75298;BME280;63896;45.990;18.688;2023-06-24T15:24:34;100884.38;;;27.09;50.06
75298;BME280;63896;45.990;18.688;2023-06-24T15:27:37;100892.41;;;26.69;51.43
75298;BME280;63896;45.990;18.688;2023-06-24T15:30:39;100882.34;;;26.92;52.11
75298;BME280;63896;45.990;18.688;2023-06-24T15:33:42;100886.03;;;26.87;51.03
75298;BME280;63896;45.990;18.688;2023-06-24T15:36:45;100894.03;;;26.70;50.78
75298;BME280;63896;45.990;18.688;2023-06-24T15:39:48;100889.59;;;26.74;51.08
75298;BME280;63896;45.990;18.688;2023-06-24T15:42:50;100896.28;;;26.90;51.55
75298;BME280;63896;45.990;18.688;2023-06-24T15:45:53;100902.91;;;26.76;50.96
75298;BME280;63896;45.990;18.688;2023-06-24T15:48:56;100896.28;;;26.68;50.82
75298;BME280;63896;45.990;18.688;2023-06-24T15:51:59;100890.50;;;26.47;51.78
75298;BME280;63896;45.990;18.688;2023-06-24T15:55:02;100904.00;;;26.52;52.32
75298;BME280;63896;45.990;18.688;2023-06-24T15:58:05;100902.66;;;26.14;53.15
75298;BME280;63896;45.990;18.688;2023-06-24T16:01:08;100903.06;;;26.21;53.35
75298;BME280;63896;45.990;18.688;2023-06-24T16:04:11;100904.13;;;26.34;53.08
75298;BME280;63896;45.990;18.688;2023-06-24T16:07:14;100912.22;;;26.12;53.46